Time;durP1;ratioP1;P1;durP2;ratioP2;P2;SDS_P1;SDS_P2;PMS_P1;PMS_P2;Temp;Humidity;BMP_temperature;BMP_pressure;BME280_temperature;BME280_humidity;BME280_pressure;Samples;Min_cycle;Max_cycle;Signal;HPM_P1;HPM_P2
2022/02/16 00:01:14;;;;;;;2.28;2.08;;;;;;;;;;6211023;23;20460;-81
2022/02/16 00:03:39;;;;;;;4.85;2.63;;;;;;;;;;6210650;23;20024;-81
2022/02/16 00:06:05;;;;;;;4.18;2.20;;;;;;;;;;6210636;23;20081;-80
2022/02/16 00:08:31;;;;;;;4.63;2.10;;;;;;;;;;6211527;23;20024;-80
2022/02/16 00:10:56;;;;;;;2.67;2.10;;;;;;;;;;6211402;23;20032;-80
2022/02/16 00:13:22;;;;;;;3.38;2.08;;;;;;;;;;6235647;23;20020;-80
2022/02/16 00:15:48;;;;;;;4.03;2.63;;;;;;;;;;6211114;22;20255;-81
2022/02/16 00:18:14;;;;;;;4.20;2.05;;;;;;;;;;6210006;23;20059;-80
2022/02/16 00:20:41;;;;;;;2.50;2.25;;;;;;;;;;6210575;23;20046;-81
2022/02/16 00:23:07;;;;;;;2.72;1.92;;;;;;;;;;6210576;23;20024;-81
2022/02/16 00:25:32;;;;;;;3.10;2.25;;;;;;;;;;6212679;23;20064;-80
2022/02/16 00:27:58;;;;;;;3.42;2.10;;;;;;;;;;6212569;23;20024;-81
2022/02/16 00:30:24;;;;;;;5.05;2.10;;;;;;;;;;6234747;23;20054;-81
2022/02/16 00:32:49;;;;;;;3.30;1.95;;;;;;;;;;6210652;22;20067;-81
2022/02/16 00:35:15;;;;;;;4.05;1.90;;;;;;;;;;6234582;23;20031;-81
2022/02/16 00:37:41;;;;;;;5.43;2.35;;;;;;;;;;6210812;23;20515;-81
2022/02/16 00:40:07;;;;;;;6.63;2.25;;;;;;;;;;6210139;23;20048;-81
2022/02/16 00:42:33;;;;;;;3.80;2.00;;;;;;;;;;6209150;23;20023;-81
2022/02/16 00:44:59;;;;;;;3.55;1.83;;;;;;;;;;6184174;23;20027;-81
2022/02/16 00:47:24;;;;;;;3.55;1.90;;;;;;;;;;6209699;23;20046;-81
2022/02/16 00:49:50;;;;;;;5.30;2.08;;;;;;;;;;6211090;23;20024;-81
2022/02/16 00:52:17;;;;;;;3.80;1.95;;;;;;;;;;6236256;23;20028;-81
2022/02/16 00:54:43;;;;;;;2.78;1.67;;;;;;;;;;6210827;23;20039;-81
2022/02/16 00:57:09;;;;;;;3.50;1.90;;;;;;;;;;6210252;23;20498;-80
2022/02/16 00:59:35;;;;;;;3.67;2.00;;;;;;;;;;6211149;23;20066;-80
2022/02/16 01:02:01;;;;;;;2.75;1.75;;;;;;;;;;6211534;23;20040;-80
2022/02/16 01:04:26;;;;;;;2.55;2.15;;;;;;;;;;6209867;23;20066;-81
2022/02/16 01:06:53;;;;;;;3.60;1.98;;;;;;;;;;6210987;23;20024;-81
2022/02/16 01:09:19;;;;;;;5.18;2.10;;;;;;;;;;6210145;23;20031;-81
2022/02/16 01:11:45;;;;;;;3.65;2.08;;;;;;;;;;6184454;23;20016;-81
2022/02/16 01:14:11;;;;;;;3.17;1.88;;;;;;;;;;6185430;23;20429;-81
2022/02/16 01:16:36;;;;;;;3.58;1.98;;;;;;;;;;6236093;22;20342;-80
2022/02/16 01:19:05;;;;;;;3.50;1.70;;;;;;;;;;6210381;23;20046;-81
2022/02/16 01:21:31;;;;;;;3.75;1.80;;;;;;;;;;6184865;23;20020;-81
2022/02/16 01:23:56;;;;;;;3.20;2.20;;;;;;;;;;6184642;23;20346;-81
2022/02/16 01:26:23;;;;;;;3.15;1.90;;;;;;;;;;6210861;22;20051;-81
2022/02/16 01:28:49;;;;;;;5.90;1.80;;;;;;;;;;6210268;23;20091;-81
2022/02/16 01:31:15;;;;;;;3.90;2.03;;;;;;;;;;6184656;23;20012;-81
2022/02/16 01:33:40;;;;;;;3.00;1.80;;;;;;;;;;6211356;23;20100;-81
2022/02/16 01:36:06;;;;;;;2.42;2.05;;;;;;;;;;6185695;23;20028;-80
2022/02/16 01:38:33;;;;;;;2.80;2.17;;;;;;;;;;6209913;23;20016;-81
2022/02/16 01:40:58;;;;;;;5.18;2.00;;;;;;;;;;6211111;23;20377;-81
2022/02/16 01:43:24;;;;;;;3.75;1.85;;;;;;;;;;6184399;23;20071;-81
2022/02/16 01:45:50;;;;;;;6.18;2.35;;;;;;;;;;6210317;23;20019;-81
2022/02/16 01:48:16;;;;;;;4.50;2.30;;;;;;;;;;6184393;23;20031;-81
2022/02/16 01:50:41;;;;;;;4.35;2.58;;;;;;;;;;6210729;23;20016;-81
2022/02/16 01:53:07;;;;;;;4.72;2.17;;;;;;;;;;6210531;23;20023;-81
2022/02/16 01:55:33;;;;;;;5.25;2.50;;;;;;;;;;6185624;23;20012;-81
2022/02/16 01:58:00;;;;;;;5.32;2.17;;;;;;;;;;6186934;23;20020;-81
2022/02/16 02:00:26;;;;;;;3.58;2.40;;;;;;;;;;6184940;23;20026;-81
2022/02/16 02:02:52;;;;;;;4.50;2.88;;;;;;;;;;6236648;23;20379;-81
2022/02/16 02:05:17;;;;;;;3.15;2.45;;;;;;;;;;6210543;22;20043;-81
2022/02/16 02:07:43;;;;;;;5.55;2.60;;;;;;;;;;6210881;23;20024;-81
2022/02/16 02:10:10;;;;;;;7.10;2.85;;;;;;;;;;6209191;23;20047;-81
2022/02/16 02:12:43;;;;;;;4.97;3.20;;;;;;;;;;6185948;23;20023;-81
2022/02/16 02:15:09;;;;;;;3.13;2.28;;;;;;;;;;6184800;23;20020;-81
2022/02/16 02:17:35;;;;;;;7.13;2.75;;;;;;;;;;6209558;23;20545;-81
2022/02/16 02:20:01;;;;;;;4.60;3.20;;;;;;;;;;6211993;23;20024;-81
2022/02/16 02:22:27;;;;;;;4.38;3.05;;;;;;;;;;6187215;23;20012;-82
2022/02/16 02:24:53;;;;;;;4.53;2.63;;;;;;;;;;6212850;23;20020;-81
2022/02/16 02:27:18;;;;;;;5.25;3.15;;;;;;;;;;6212976;23;20020;-81
2022/02/16 02:29:44;;;;;;;7.32;3.40;;;;;;;;;;6237155;23;20157;-82
2022/02/16 02:32:10;;;;;;;4.53;3.33;;;;;;;;;;6236969;23;20395;-81
2022/02/16 02:34:35;;;;;;;4.07;3.33;;;;;;;;;;6187349;23;20560;-82
2022/02/16 02:37:01;;;;;;;6.32;3.50;;;;;;;;;;6187990;23;20050;-82
2022/02/16 02:39:27;;;;;;;8.00;3.60;;;;;;;;;;6187673;23;20040;-82
2022/02/16 02:41:52;;;;;;;6.07;3.25;;;;;;;;;;6211826;22;20028;-82
2022/02/16 02:44:18;;;;;;;5.80;3.30;;;;;;;;;;6186648;23;20082;-82
2022/02/16 02:46:44;;;;;;;6.72;3.50;;;;;;;;;;6187097;23;20098;-82
2022/02/16 02:49:10;;;;;;;7.50;3.15;;;;;;;;;;6210698;23;20106;-81
2022/02/16 02:51:35;;;;;;;6.72;3.63;;;;;;;;;;6212377;23;20463;-82
2022/02/16 02:54:01;;;;;;;6.40;3.63;;;;;;;;;;6212653;22;20091;-82
2022/02/16 02:56:27;;;;;;;6.95;3.63;;;;;;;;;;6186779;23;20039;-82
2022/02/16 02:58:53;;;;;;;6.07;2.80;;;;;;;;;;6235986;23;20082;-82
2022/02/16 03:01:18;;;;;;;6.15;2.95;;;;;;;;;;6211563;23;20085;-82
2022/02/16 03:03:44;;;;;;;4.43;2.85;;;;;;;;;;6211980;23;20020;-82
2022/02/16 03:06:11;;;;;;;3.45;2.90;;;;;;;;;;6213052;23;20078;-82
2022/02/16 03:08:37;;;;;;;4.95;3.05;;;;;;;;;;6210684;23;20020;-82
2022/02/16 03:11:03;;;;;;;4.20;3.22;;;;;;;;;;6211902;23;20087;-82
2022/02/16 03:13:29;;;;;;;5.47;3.15;;;;;;;;;;6212499;23;20039;-82
2022/02/16 03:15:55;;;;;;;3.72;2.70;;;;;;;;;;6211772;23;20048;-81
2022/02/16 03:18:21;;;;;;;5.15;3.25;;;;;;;;;;6212884;23;20044;-84
2022/02/16 03:20:47;;;;;;;3.55;2.45;;;;;;;;;;6189039;23;20016;-84
2022/02/16 03:23:13;;;;;;;6.25;2.85;;;;;;;;;;6186988;23;20024;-84
2022/02/16 03:25:39;;;;;;;5.10;2.88;;;;;;;;;;6212614;23;20043;-84
2022/02/16 03:28:04;;;;;;;6.13;3.05;;;;;;;;;;6213263;23;20168;-84
2022/02/16 03:30:31;;;;;;;5.85;3.38;;;;;;;;;;6213183;23;20027;-84
2022/02/16 03:32:56;;;;;;;6.63;2.70;;;;;;;;;;6187705;23;20026;-84
2022/02/16 03:35:22;;;;;;;4.13;2.50;;;;;;;;;;6213336;23;20020;-85
2022/02/16 03:37:48;;;;;;;3.30;2.92;;;;;;;;;;6188053;23;20438;-84
2022/02/16 03:40:14;;;;;;;5.90;2.80;;;;;;;;;;6213088;23;20361;-84
2022/02/16 03:42:39;;;;;;;4.35;2.35;;;;;;;;;;6187596;23;20442;-84
2022/02/16 03:45:06;;;;;;;6.03;2.33;;;;;;;;;;6212526;23;20081;-84
2022/02/16 03:47:31;;;;;;;4.80;2.63;;;;;;;;;;6189090;23;20051;-84
2022/02/16 03:49:57;;;;;;;3.25;2.85;;;;;;;;;;6214074;23;20043;-85
2022/02/16 03:52:23;;;;;;;4.22;2.50;;;;;;;;;;6212568;23;20024;-84
2022/02/16 03:54:48;;;;;;;5.60;2.60;;;;;;;;;;6213641;23;20016;-85
2022/02/16 03:57:14;;;;;;;3.38;2.50;;;;;;;;;;6212516;23;20024;-84
2022/02/16 03:59:40;;;;;;;4.38;2.47;;;;;;;;;;6213163;23;20042;-85
2022/02/16 04:02:05;;;;;;;5.53;2.67;;;;;;;;;;6188142;23;20454;-84
2022/02/16 04:04:31;;;;;;;3.30;2.38;;;;;;;;;;6188527;23;20024;-84
2022/02/16 04:06:58;;;;;;;6.85;2.90;;;;;;;;;;6213421;23;20335;-84
2022/02/16 04:09:24;;;;;;;4.70;2.97;;;;;;;;;;6188175;23;20019;-84
2022/02/16 04:11:49;;;;;;;3.13;2.55;;;;;;;;;;6213326;23;20244;-84
2022/02/16 04:14:15;;;;;;;3.40;2.67;;;;;;;;;;6187312;23;20032;-84
2022/02/16 04:16:41;;;;;;;5.53;2.33;;;;;;;;;;6212285;23;20024;-84
2022/02/16 04:19:07;;;;;;;4.30;2.47;;;;;;;;;;6212537;23;20070;-84
2022/02/16 04:21:32;;;;;;;5.60;2.30;;;;;;;;;;6212500;23;20078;-84
2022/02/16 04:23:58;;;;;;;3.80;2.67;;;;;;;;;;6213906;23;20082;-84
2022/02/16 04:26:24;;;;;;;3.03;2.13;;;;;;;;;;6187850;23;20024;-84
2022/02/16 04:28:50;;;;;;;4.72;2.72;;;;;;;;;;6212206;23;20462;-84
2022/02/16 04:31:16;;;;;;;3.80;2.75;;;;;;;;;;6213721;23;20035;-84
2022/02/16 04:33:42;;;;;;;2.92;2.47;;;;;;;;;;6187139;23;20024;-84
2022/02/16 04:36:07;;;;;;;4.68;2.60;;;;;;;;;;6187287;23;20509;-84
2022/02/16 04:38:33;;;;;;;6.68;2.83;;;;;;;;;;6212419;23;20066;-84
2022/02/16 04:40:59;;;;;;;4.82;2.88;;;;;;;;;;6214127;23;20028;-84
2022/02/16 04:43:24;;;;;;;4.28;2.65;;;;;;;;;;6213053;22;20432;-84
2022/02/16 04:45:50;;;;;;;4.13;2.53;;;;;;;;;;6213408;22;20342;-84
2022/02/16 04:48:16;;;;;;;5.03;2.42;;;;;;;;;;6237369;23;20024;-84
2022/02/16 04:50:42;;;;;;;5.18;2.58;;;;;;;;;;6213303;23;20365;-84
2022/02/16 04:53:08;;;;;;;6.50;3.10;;;;;;;;;;6186823;23;20387;-84
2022/02/16 04:55:34;;;;;;;4.30;2.13;;;;;;;;;;6213178;23;20111;-84
2022/02/16 04:58:00;;;;;;;6.65;2.60;;;;;;;;;;6211563;23;20107;-84
2022/02/16 05:00:26;;;;;;;2.85;2.53;;;;;;;;;;6213432;23;20044;-84
2022/02/16 05:02:52;;;;;;;2.72;2.53;;;;;;;;;;6212793;22;20059;-84
2022/02/16 05:05:18;;;;;;;4.28;2.03;;;;;;;;;;6213710;23;20028;-84
2022/02/16 05:07:44;;;;;;;5.00;2.47;;;;;;;;;;6211391;23;20023;-84
2022/02/16 05:10:10;;;;;;;3.25;2.58;;;;;;;;;;6187210;23;20429;-84
2022/02/16 05:12:36;;;;;;;3.50;2.03;;;;;;;;;;6212482;23;20039;-84
2022/02/16 05:15:03;;;;;;;4.50;2.20;;;;;;;;;;6188146;23;20489;-84
2022/02/16 05:17:29;;;;;;;3.05;2.35;;;;;;;;;;6187084;23;20087;-84
2022/02/16 05:19:55;;;;;;;4.20;2.38;;;;;;;;;;6212998;23;20032;-84
2022/02/16 05:22:21;;;;;;;6.20;2.35;;;;;;;;;;6212278;23;20095;-84
2022/02/16 05:24:47;;;;;;;2.50;2.30;;;;;;;;;;6186251;23;20807;-84
2022/02/16 05:27:13;;;;;;;2.67;2.30;;;;;;;;;;6186070;23;20355;-85
2022/02/16 05:29:38;;;;;;;2.95;2.20;;;;;;;;;;6212063;23;20016;-84
2022/02/16 05:32:04;;;;;;;3.30;2.20;;;;;;;;;;6212859;23;20078;-84
2022/02/16 05:34:30;;;;;;;2.00;1.80;;;;;;;;;;6212982;23;20017;-84
2022/02/16 05:36:56;;;;;;;3.13;1.90;;;;;;;;;;6211820;23;20059;-84
2022/02/16 05:39:22;;;;;;;2.22;1.90;;;;;;;;;;6213920;23;20141;-85
2022/02/16 05:41:49;;;;;;;3.08;2.05;;;;;;;;;;6236549;22;20212;-84
2022/02/16 05:44:15;;;;;;;3.22;1.92;;;;;;;;;;6215144;23;20039;-84
2022/02/16 05:46:40;;;;;;;3.33;1.88;;;;;;;;;;6212113;23;20078;-84
2022/02/16 05:49:08;;;;;;;2.38;1.90;;;;;;;;;;6212032;23;20050;-84
2022/02/16 05:51:35;;;;;;;2.38;1.88;;;;;;;;;;6240106;23;20264;-84
2022/02/16 05:54:01;;;;;;;1.98;1.42;;;;;;;;;;6210289;23;20098;-84
2022/02/16 05:56:27;;;;;;;2.63;1.50;;;;;;;;;;6210882;23;20012;-84
2022/02/16 05:58:53;;;;;;;3.47;2.00;;;;;;;;;;6212419;22;20335;-84
2022/02/16 06:01:19;;;;;;;2.95;1.80;;;;;;;;;;6212826;23;20028;-84
2022/02/16 06:03:44;;;;;;;2.85;1.40;;;;;;;;;;6213679;23;20067;-84
2022/02/16 06:06:10;;;;;;;2.40;1.90;;;;;;;;;;6213963;23;20090;-84
2022/02/16 06:08:36;;;;;;;3.63;2.10;;;;;;;;;;6188532;23;20040;-85
2022/02/16 06:11:02;;;;;;;2.20;1.38;;;;;;;;;;6189092;23;20020;-85
2022/02/16 06:13:28;;;;;;;2.53;1.60;;;;;;;;;;6166732;23;20227;-85
2022/02/16 06:15:54;;;;;;;3.08;1.70;;;;;;;;;;6215509;23;20032;-85
2022/02/16 06:18:43;;;;;;;1.75;1.35;;;;;;;;;;6188121;23;20050;-85
2022/02/16 06:21:20;;;;;;;2.92;1.67;;;;;;;;;;6139642;23;20028;-85
2022/02/16 06:26:59;;;;;;;;;;;;;;;;;;6154097;22;20064;-86
2022/02/16 06:29:31;;;;;;;2.03;1.50;;;;;;;;;;6172076;22;19917;-85
2022/02/16 06:31:57;;;;;;;1.60;1.30;;;;;;;;;;6222112;23;20043;-85
2022/02/16 06:34:22;;;;;;;1.10;1.00;;;;;;;;;;6189452;23;20047;-85
2022/02/16 06:36:48;;;;;;;3.28;1.60;;;;;;;;;;6190769;23;20016;-85
2022/02/16 06:39:14;;;;;;;1.55;1.25;;;;;;;;;;6190331;23;20351;-85
2022/02/16 06:41:39;;;;;;;1.92;1.80;;;;;;;;;;6216278;23;20020;-85
2022/02/16 06:44:05;;;;;;;2.22;1.60;;;;;;;;;;6189789;23;20026;-85
2022/02/16 06:46:31;;;;;;;1.60;1.50;;;;;;;;;;6217224;22;20026;-85
2022/02/16 06:48:57;;;;;;;3.72;1.50;;;;;;;;;;6215876;23;20028;-85
2022/02/16 06:51:22;;;;;;;1.63;1.50;;;;;;;;;;6215683;23;20441;-85
2022/02/16 06:53:55;;;;;;;2.78;1.10;;;;;;;;;;6215067;22;20024;-85
2022/02/16 06:56:21;;;;;;;1.27;1.17;;;;;;;;;;6217877;23;20031;-85
2022/02/16 06:58:46;;;;;;;2.60;1.23;;;;;;;;;;6191337;23;20454;-85
2022/02/16 07:01:12;;;;;;;3.33;1.55;;;;;;;;;;6192328;23;20070;-86
2022/02/16 07:03:38;;;;;;;2.47;1.50;;;;;;;;;;6217061;23;20028;-85
2022/02/16 07:06:04;;;;;;;3.45;1.30;;;;;;;;;;6216012;23;20024;-85
2022/02/16 07:08:29;;;;;;;2.58;1.60;;;;;;;;;;6191536;23;20020;-85
2022/02/16 07:10:55;;;;;;;3.80;1.35;;;;;;;;;;6191486;23;20103;-85
2022/02/16 07:13:21;;;;;;;3.05;1.48;;;;;;;;;;6216632;23;20051;-85
2022/02/16 07:16:24;;;;;;;1.80;1.30;;;;;;;;;;6182689;22;20082;-85
2022/02/16 07:18:59;;;;;;;1.60;1.20;;;;;;;;;;6190763;23;20028;-86
2022/02/16 07:21:26;;;;;;;1.88;1.50;;;;;;;;;;6215222;23;20107;-84
2022/02/16 07:23:52;;;;;;;1.33;1.10;;;;;;;;;;6242773;23;20047;-83
2022/02/16 07:26:18;;;;;;;2.72;1.20;;;;;;;;;;6214738;22;20024;-83
2022/02/16 07:28:43;;;;;;;1.95;1.50;;;;;;;;;;6213666;23;20077;-83
2022/02/16 07:31:09;;;;;;;1.25;1.08;;;;;;;;;;6189608;23;20323;-83
2022/02/16 07:33:35;;;;;;;1.30;1.20;;;;;;;;;;6188962;23;20039;-83
2022/02/16 07:36:01;;;;;;;1.52;0.90;;;;;;;;;;6215117;22;20104;-83
2022/02/16 07:38:27;;;;;;;1.90;1.15;;;;;;;;;;6214412;23;20115;-84
2022/02/16 07:40:53;;;;;;;3.00;1.17;;;;;;;;;;6189121;23;20020;-84
2022/02/16 07:43:19;;;;;;;3.92;1.70;;;;;;;;;;6214816;23;20051;-84
2022/02/16 07:45:45;;;;;;;2.65;1.20;;;;;;;;;;6190880;23;20355;-84
2022/02/16 07:48:11;;;;;;;2.03;1.00;;;;;;;;;;6215900;23;20023;-83
2022/02/16 07:50:37;;;;;;;1.65;0.88;;;;;;;;;;6214476;23;20095;-83
2022/02/16 07:53:04;;;;;;;1.77;1.02;;;;;;;;;;6214624;23;20508;-83
2022/02/16 07:55:30;;;;;;;1.20;1.00;;;;;;;;;;6214721;23;20024;-84
2022/02/16 07:58:01;;;;;;;1.48;0.80;;;;;;;;;;6215030;23;20354;-84
2022/02/16 08:00:26;;;;;;;2.70;1.00;;;;;;;;;;6216179;23;20016;-83
2022/02/16 08:02:52;;;;;;;0.98;0.75;;;;;;;;;;6214677;23;20024;-83
2022/02/16 08:05:18;;;;;;;1.38;0.80;;;;;;;;;;6239041;23;20024;-84
2022/02/16 08:07:43;;;;;;;2.00;0.80;;;;;;;;;;6214830;23;20008;-84
2022/02/16 08:10:09;;;;;;;1.20;0.68;;;;;;;;;;6213361;23;20374;-83
2022/02/16 08:12:56;;;;;;;0.60;0.60;;;;;;;;;;6240014;23;20024;-84
2022/02/16 08:15:21;;;;;;;;;;;;;;;;;;6214437;23;20028;-83
2022/02/16 08:17:47;;;;;;;0.60;0.60;;;;;;;;;;6215606;23;19919;-84
2022/02/16 08:20:13;;;;;;;0.75;0.45;;;;;;;;;;6189071;23;20078;-83
2022/02/16 08:22:39;;;;;;;1.50;0.63;;;;;;;;;;6212533;23;20038;-84
2022/02/16 08:25:06;;;;;;;0.65;0.50;;;;;;;;;;6214177;23;20028;-84
2022/02/16 08:27:56;;;;;;;1.05;0.52;;;;;;;;;;6216451;23;20026;-84
2022/02/16 08:30:22;;;;;;;0.80;0.50;;;;;;;;;;6203195;23;20036;-84
2022/02/16 08:32:49;;;;;;;3.85;0.90;;;;;;;;;;6215250;23;20051;-84
2022/02/16 08:35:15;;;;;;;0.95;0.70;;;;;;;;;;6216795;23;20039;-84
2022/02/16 08:37:41;;;;;;;1.65;0.60;;;;;;;;;;6214466;22;20020;-83
2022/02/16 08:40:07;;;;;;;0.50;0.50;;;;;;;;;;6214979;23;20046;-85
2022/02/16 08:42:33;;;;;;;1.75;0.47;;;;;;;;;;6214411;23;20473;-84
2022/02/16 08:44:58;;;;;;;1.10;0.50;;;;;;;;;;6189786;23;20071;-84
2022/02/16 08:47:25;;;;;;;1.05;0.50;;;;;;;;;;6164587;23;20028;-84
2022/02/16 08:49:51;;;;;;;1.55;0.57;;;;;;;;;;6190292;23;20252;-84
2022/02/16 08:52:17;;;;;;;0.38;0.30;;;;;;;;;;6188032;23;20243;-84
2022/02/16 08:54:43;;;;;;;0.75;0.50;;;;;;;;;;6190199;23;20038;-83
2022/02/16 08:57:08;;;;;;;1.40;0.80;;;;;;;;;;6217077;23;20020;-84
2022/02/16 08:59:34;;;;;;;0.43;0.40;;;;;;;;;;6214736;23;20053;-84
2022/02/16 09:02:01;;;;;;;1.65;0.50;;;;;;;;;;6190177;23;20020;-84
2022/02/16 09:04:26;;;;;;;1.45;0.50;;;;;;;;;;6188255;23;20020;-84
2022/02/16 09:09:37;;;;;;;0.50;0.40;;;;;;;;;;6217825;23;20101;-84
2022/02/16 09:12:05;;;;;;;0.40;0.40;;;;;;;;;;6217234;23;20373;-84
2022/02/16 09:14:30;;;;;;;1.02;0.30;;;;;;;;;;6189125;23;20063;-84
2022/02/16 09:16:56;;;;;;;0.40;0.40;;;;;;;;;;6189401;23;20054;-84
2022/02/16 09:19:22;;;;;;;0.30;0.30;;;;;;;;;;6214575;22;20028;-84
2022/02/16 09:21:48;;;;;;;0.30;0.30;;;;;;;;;;6214232;23;20307;-84
2022/02/16 09:24:14;;;;;;;0.55;0.50;;;;;;;;;;6214892;23;20028;-84
2022/02/16 09:26:39;;;;;;;0.30;0.30;;;;;;;;;;6214765;23;20088;-84
2022/02/16 09:29:05;;;;;;;0.68;0.50;;;;;;;;;;6214721;23;20073;-84
2022/02/16 09:31:31;;;;;;;0.38;0.38;;;;;;;;;;6216593;23;20046;-84
2022/02/16 09:33:57;;;;;;;1.05;0.40;;;;;;;;;;6190502;23;20070;-84
2022/02/16 09:36:23;;;;;;;0.77;0.43;;;;;;;;;;6215930;23;20514;-84
2022/02/16 09:38:48;;;;;;;0.82;0.50;;;;;;;;;;6218142;23;20442;-84
2022/02/16 09:41:15;;;;;;;0.60;0.40;;;;;;;;;;6216330;23;20051;-84
2022/02/16 09:43:41;;;;;;;1.77;0.40;;;;;;;;;;6219437;23;20108;-84
2022/02/16 09:46:07;;;;;;;0.52;0.30;;;;;;;;;;6219580;23;20028;-84
2022/02/16 09:48:34;;;;;;;0.40;0.40;;;;;;;;;;6193092;23;20012;-84
2022/02/16 09:51:00;;;;;;;0.60;0.60;;;;;;;;;;6218021;23;20024;-85
2022/02/16 09:53:26;;;;;;;0.70;0.50;;;;;;;;;;6191303;23;20097;-84
2022/02/16 09:55:51;;;;;;;1.73;0.70;;;;;;;;;;6216893;22;20020;-84
2022/02/16 09:58:17;;;;;;;1.27;0.40;;;;;;;;;;6192999;23;20024;-84
2022/02/16 10:01:03;;;;;;;0.73;0.40;;;;;;;;;;6216148;23;20085;-84
2022/02/16 10:03:28;;;;;;;0.55;0.55;;;;;;;;;;6191355;23;20091;-84
2022/02/16 10:05:54;;;;;;;0.60;0.57;;;;;;;;;;6216715;23;20071;-84
2022/02/16 10:08:39;;;;;;;0.50;0.50;;;;;;;;;;6215314;23;20524;-84
2022/02/16 10:11:04;;;;;;;0.70;0.50;;;;;;;;;;6189547;23;20122;-84
2022/02/16 10:13:30;;;;;;;1.23;0.40;;;;;;;;;;6192387;23;20024;-84
2022/02/16 10:15:56;;;;;;;0.65;0.50;;;;;;;;;;6216240;23;20055;-84
2022/02/16 10:18:23;;;;;;;1.65;0.63;;;;;;;;;;6190418;23;20028;-84
2022/02/16 10:20:50;;;;;;;1.10;0.43;;;;;;;;;;6218393;23;20131;-84
2022/02/16 10:23:16;;;;;;;0.88;0.60;;;;;;;;;;6192609;23;20030;-85
2022/02/16 10:25:50;;;;;;;0.57;0.30;;;;;;;;;;6191839;23;20084;-84
2022/02/16 10:28:17;;;;;;;0.80;0.65;;;;;;;;;;6193123;23;20032;-84
2022/02/16 10:31:09;;;;;;;0.90;0.40;;;;;;;;;;6242311;22;20016;-84
2022/02/16 10:34:01;;;;;;;0.55;0.40;;;;;;;;;;6215763;23;20016;-84
2022/02/16 10:36:29;;;;;;;1.40;0.57;;;;;;;;;;6214047;23;20325;-84
2022/02/16 10:39:06;;;;;;;0.50;0.50;;;;;;;;;;6213777;23;20066;-84
2022/02/16 10:41:41;;;;;;;2.83;0.73;;;;;;;;;;6212820;23;20020;-84
2022/02/16 10:44:16;;;;;;;0.85;0.45;;;;;;;;;;6214040;23;20047;-84
2022/02/16 10:46:41;;;;;;;0.65;0.55;;;;;;;;;;6189132;23;20016;-84
2022/02/16 10:49:15;;;;;;;0.70;0.70;;;;;;;;;;6215872;23;20027;-84
2022/02/16 10:51:42;;;;;;;0.82;0.82;;;;;;;;;;6213838;23;20027;-84
2022/02/16 10:54:18;;;;;;;1.35;0.60;;;;;;;;;;6214226;23;20331;-84
2022/02/16 10:56:46;;;;;;;1.15;0.68;;;;;;;;;;6214295;23;20525;-84
2022/02/16 10:59:12;;;;;;;0.50;0.50;;;;;;;;;;6213783;23;20024;-84
2022/02/16 11:01:38;;;;;;;1.98;1.05;;;;;;;;;;6213154;23;20432;-84
2022/02/16 11:04:06;;;;;;;1.38;0.70;;;;;;;;;;6214708;23;20474;-83
2022/02/16 11:06:33;;;;;;;0.77;0.68;;;;;;;;;;6214406;23;20091;-84
2022/02/16 11:09:00;;;;;;;3.45;0.60;;;;;;;;;;6187723;23;20452;-83
2022/02/16 11:11:29;;;;;;;1.67;0.98;;;;;;;;;;6188747;23;20072;-83
2022/02/16 11:13:59;;;;;;;2.63;1.05;;;;;;;;;;6214622;23;20016;-84
2022/02/16 11:16:26;;;;;;;2.30;1.13;;;;;;;;;;6186652;23;20020;-84
2022/02/16 11:18:59;;;;;;;1.98;0.93;;;;;;;;;;6188330;23;20335;-83
2022/02/16 11:21:26;;;;;;;1.30;0.70;;;;;;;;;;6190453;23;20023;-84
2022/02/16 11:23:54;;;;;;;2.63;1.00;;;;;;;;;;6213468;23;20043;-84
2022/02/16 11:26:48;;;;;;;1.33;0.82;;;;;;;;;;6198520;23;20031;-84
2022/02/16 11:29:26;;;;;;;1.90;1.00;;;;;;;;;;6191017;23;20024;-84
2022/02/16 11:31:53;;;;;;;0.95;0.88;;;;;;;;;;6212727;23;20457;-84
2022/02/16 11:34:22;;;;;;;1.85;0.90;;;;;;;;;;6212075;23;20450;-84
2022/02/16 11:36:58;;;;;;;1.98;0.90;;;;;;;;;;6212404;23;20040;-84
2022/02/16 11:39:59;;;;;;;1.05;0.50;;;;;;;;;;6188659;23;20518;-84
2022/02/16 11:42:51;;;;;;;0.98;0.75;;;;;;;;;;6214634;23;20066;-83
2022/02/16 11:45:21;;;;;;;1.30;0.88;;;;;;;;;;6212977;23;20092;-84
2022/02/16 11:47:48;;;;;;;0.65;0.65;;;;;;;;;;6213567;23;20068;-84
2022/02/16 11:50:17;;;;;;;2.17;0.82;;;;;;;;;;6212241;23;20080;-84
2022/02/16 11:52:55;;;;;;;0.93;0.70;;;;;;;;;;6214660;23;20016;-84
2022/02/16 11:55:23;;;;;;;0.73;0.63;;;;;;;;;;6213559;23;20043;-84
2022/02/16 11:58:04;;;;;;;1.20;0.80;;;;;;;;;;6215636;23;20028;-84
2022/02/16 12:00:52;;;;;;;1.73;0.82;;;;;;;;;;6241638;23;20042;-84
2022/02/16 12:03:20;;;;;;;2.95;0.88;;;;;;;;;;6214100;23;20363;-85
2022/02/16 12:06:09;;;;;;;2.72;1.00;;;;;;;;;;6187295;23;20082;-84
2022/02/16 12:08:36;;;;;;;1.40;1.00;;;;;;;;;;6215263;23;20020;-84
2022/02/16 12:11:19;;;;;;;1.77;0.90;;;;;;;;;;6215801;23;20031;-84
2022/02/16 12:13:58;;;;;;;3.22;1.15;;;;;;;;;;6213182;23;20274;-84
2022/02/16 12:16:37;;;;;;;2.58;1.05;;;;;;;;;;6216559;23;20123;-83
2022/02/16 12:19:05;;;;;;;1.23;1.10;;;;;;;;;;6213284;23;20030;-83
2022/02/16 12:21:39;;;;;;;1.25;1.15;;;;;;;;;;6188794;23;20024;-83
2022/02/16 12:24:10;;;;;;;1.52;1.42;;;;;;;;;;6187967;23;20063;-83
2022/02/16 12:26:40;;;;;;;1.50;1.13;;;;;;;;;;6187366;23;20457;-83
2022/02/16 12:29:18;;;;;;;2.15;1.38;;;;;;;;;;6188795;23;20212;-83
2022/02/16 12:31:49;;;;;;;2.58;1.70;;;;;;;;;;6187776;23;20016;-83
2022/02/16 12:34:17;;;;;;;2.20;1.35;;;;;;;;;;6214237;23;20187;-83
2022/02/16 12:36:51;;;;;;;1.60;1.50;;;;;;;;;;6187611;23;20081;-83
2022/02/16 12:39:17;;;;;;;1.92;1.73;;;;;;;;;;6190158;23;20024;-83
2022/02/16 12:41:46;;;;;;;1.73;1.60;;;;;;;;;;6214429;23;20016;-83
2022/02/16 12:44:17;;;;;;;3.55;1.70;;;;;;;;;;6188870;23;20034;-83
2022/02/16 12:46:48;;;;;;;2.97;1.67;;;;;;;;;;6213598;23;20119;-84
2022/02/16 12:49:17;;;;;;;1.25;1.15;;;;;;;;;;6213083;23;20327;-83
2022/02/16 12:51:45;;;;;;;1.50;1.40;;;;;;;;;;6188379;23;20032;-83
2022/02/16 12:54:16;;;;;;;2.40;1.80;;;;;;;;;;6186749;23;20472;-83
2022/02/16 12:56:45;;;;;;;1.83;1.73;;;;;;;;;;6212909;23;20027;-83
2022/02/16 12:59:21;;;;;;;2.60;1.60;;;;;;;;;;6188509;23;20023;-83
2022/02/16 13:01:47;;;;;;;2.30;1.92;;;;;;;;;;6190348;23;20042;-84
2022/02/16 13:04:18;;;;;;;2.30;2.10;;;;;;;;;;6186433;23;20016;-85
2022/02/16 13:07:00;;;;;;;3.28;1.50;;;;;;;;;;6168041;23;20394;-85
2022/02/16 13:10:12;;;;;;;1.92;1.50;;;;;;;;;;6190431;22;20033;-85
2022/02/16 13:20:15;;;;;;;1.67;1.58;;;;;;;;;;5916656;23;20359;-85
2022/02/16 13:23:22;;;;;;;2.35;1.40;;;;;;;;;;5943914;23;20027;-84
2022/02/16 13:25:57;;;;;;;1.30;1.10;;;;;;;;;;5931278;23;20011;-84
2022/02/16 13:29:20;;;;;;;2.83;1.10;;;;;;;;;;6024958;23;20019;-85
2022/02/16 13:31:54;;;;;;;1.45;1.20;;;;;;;;;;5980665;23;20094;-85
2022/02/16 13:34:45;;;;;;;3.88;1.30;;;;;;;;;;6069444;23;20026;-84
2022/02/16 13:37:29;;;;;;;1.65;1.35;;;;;;;;;;6032794;23;20036;-84
2022/02/16 13:40:06;;;;;;;1.00;0.95;;;;;;;;;;6095524;23;20037;-84
2022/02/16 13:45:36;;;;;;;0.90;0.65;;;;;;;;;;6227178;22;20365;-83
2022/02/16 13:51:31;;;;;;;2.30;1.00;;;;;;;;;;6189206;22;20243;-85
2022/02/16 13:53:57;;;;;;;2.15;0.90;;;;;;;;;;6247095;22;20667;-85
2022/02/16 13:56:26;;;;;;;1.02;0.80;;;;;;;;;;6233212;22;20053;-87
2022/02/16 13:59:04;;;;;;;1.73;0.93;;;;;;;;;;6222960;22;20123;-85
2022/02/16 14:01:30;;;;;;;1.27;0.60;;;;;;;;;;6195227;22;20028;-86
2022/02/16 14:04:07;;;;;;;1.98;0.65;;;;;;;;;;6205516;22;20020;-85
2022/02/16 14:06:33;;;;;;;2.08;0.57;;;;;;;;;;6245537;22;20608;-85
2022/02/16 14:09:01;;;;;;;1.35;0.73;;;;;;;;;;6220581;22;20020;-85
2022/02/16 14:11:27;;;;;;;1.02;0.70;;;;;;;;;;6222517;22;20027;-85
2022/02/16 14:13:53;;;;;;;1.33;0.98;;;;;;;;;;6221668;22;20122;-85
2022/02/16 14:16:26;;;;;;;3.55;1.65;;;;;;;;;;6243112;22;20051;-85
2022/02/16 14:28:48;;;;;;;0.57;0.57;;;;;;;;;;6276266;22;20054;-85
2022/02/16 14:31:14;;;;;;;1.75;0.75;;;;;;;;;;6247541;22;20047;-85
2022/02/16 14:33:39;;;;;;;1.05;0.60;;;;;;;;;;6248270;22;20121;-85
2022/02/16 14:36:05;;;;;;;0.80;0.63;;;;;;;;;;6271775;22;20073;-84
2022/02/16 14:38:31;;;;;;;2.35;0.90;;;;;;;;;;6222757;22;20026;-84
2022/02/16 14:40:56;;;;;;;1.55;0.60;;;;;;;;;;6223187;22;20039;-85
2022/02/16 14:43:22;;;;;;;0.85;0.60;;;;;;;;;;6219504;23;20064;-85
2022/02/16 14:45:48;;;;;;;0.77;0.75;;;;;;;;;;6193710;22;20055;-85
2022/02/16 14:48:14;;;;;;;0.80;0.80;;;;;;;;;;6192703;22;20043;-85
2022/02/16 14:50:41;;;;;;;0.60;0.52;;;;;;;;;;6194701;22;20564;-85
2022/02/16 14:53:07;;;;;;;0.63;0.50;;;;;;;;;;6220465;22;20020;-85
2022/02/16 14:55:32;;;;;;;0.45;0.40;;;;;;;;;;6192863;22;20078;-85
2022/02/16 14:57:58;;;;;;;0.52;0.30;;;;;;;;;;6193895;22;20090;-85
2022/02/16 15:00:24;;;;;;;2.78;0.52;;;;;;;;;;6192241;23;20008;-85
2022/02/16 15:02:50;;;;;;;0.70;0.60;;;;;;;;;;6219162;22;20054;-85
2022/02/16 15:05:17;;;;;;;2.05;0.55;;;;;;;;;;6192867;22;20031;-85
2022/02/16 15:07:42;;;;;;;0.68;0.40;;;;;;;;;;6192535;22;20053;-85
2022/02/16 15:10:08;;;;;;;0.50;0.40;;;;;;;;;;6193579;22;20031;-85
2022/02/16 15:12:36;;;;;;;0.30;0.30;;;;;;;;;;6192948;22;20024;-85
2022/02/16 15:15:04;;;;;;;0.30;0.30;;;;;;;;;;6193182;22;20403;-85
2022/02/16 15:17:30;;;;;;;0.65;0.32;;;;;;;;;;6192649;22;20028;-85
2022/02/16 15:19:56;;;;;;;1.30;0.50;;;;;;;;;;6193457;23;20035;-85